Bradley International Airport
KBDL : now visible

Airfield :











YOU CAN JOIN US ON...

 
LOGIN :

Register | Disclaimer

   EN    FR    IT 

 









Legend :    VFR   Marginal VFR   IFR   Intensive IFR   Very Intensive IFR
Visi :
Ceiling :
>= 8 km
>= 3000ft
5 to 8 km
1000 to 3000 ft
1500m to 5 km
500 to 1000 ft
800 to 1500m
200 to 500 ft
< 800m
< 200 ft
Symbols :   Thunderstorms  Fog  Heavy snow  Heavy precipitations  Wind > 20 kt






- Airport Elevation : 173 ft
- IATA code : BDL


KBDL - Bradley International

CURRENT METAR :
  • 280651Z 36009KT 10SM BKN034 10/04 A2989 RMK AO2 SLP123 T01000044

EXPIRED METARs :
  • 280551Z 35007KT 10SM BKN035 10/04 A2988 RMK AO2 SLP120 T01000044 10117 20094 53010
  • 280451Z 35006KT 10SM FEW080 FEW250 10/04 A2985 RMK AO2 SLP109 T01000044 401220094

TAF KBDL
Valid from the 28 at 06:00 until the 29 at 12:00 UTC


280529Z 2806/2912 35008KT P6SM FEW080 FEW250
FM281300 01007KT P6SM SCT045
FM281600 02007KT P6SM BKN020
FM282100 03005KT P6SM SCT035
FM290100 02004KT P6SM FEW150
KZBW FIR / North America



MET'MAP, your aeronautical weather chart ! - Copyright ORBIFLY December 2007 - Disclaimer

ORBIFLY MET'MAP TEAM :

Programming & Development : Alexandra Zaïnal
Concept & original design : Baudouin d'Aumeries
Assistance for programming : Marc-Olivier Méhu
Technical & hardware support : Manuel Goepfert

Contact : metmap@orbifly.com




SOURCES & CREDITS :

   NOAA       Earth
Advisory